createdAt,value
2022-10-19T00:01:07.926Z,14.97
2022-10-19T00:03:35.441Z,14.94
2022-10-19T00:06:15.854Z,14.95
2022-10-19T00:08:43.041Z,14.90
2022-10-19T00:11:09.716Z,14.87
2022-10-19T00:13:36.728Z,14.86
2022-10-19T00:16:11.376Z,14.81
2022-10-19T00:18:39.301Z,14.77
2022-10-19T00:21:09.049Z,14.76
2022-10-19T00:23:35.997Z,14.74
2022-10-19T00:26:03.397Z,14.72
2022-10-19T00:28:30.043Z,14.68
2022-10-19T00:30:56.487Z,14.66
2022-10-19T00:33:22.892Z,14.65
2022-10-19T00:35:51.076Z,14.71
2022-10-19T00:38:18.640Z,14.74
2022-10-19T00:40:45.892Z,14.80
2022-10-19T00:43:19.274Z,14.84
2022-10-19T00:45:45.980Z,14.88
2022-10-19T00:48:17.184Z,14.90
2022-10-19T00:50:45.688Z,14.94
2022-10-19T00:53:12.301Z,14.99
2022-10-19T00:55:39.631Z,15.02
2022-10-19T00:58:06.069Z,15.05
2022-10-19T01:00:33.986Z,15.08
2022-10-19T01:03:01.127Z,15.09
2022-10-19T01:05:28.547Z,15.09
2022-10-19T01:07:56.976Z,15.10
2022-10-19T01:10:32.723Z,15.11
2022-10-19T01:13:23.139Z,15.12
2022-10-19T01:16:02.392Z,15.09
2022-10-19T01:18:55.295Z,15.11
2022-10-19T01:21:26.137Z,15.10
2022-10-19T01:24:04.548Z,15.10
2022-10-19T01:26:42.046Z,15.08
2022-10-19T01:29:32.571Z,15.08
2022-10-19T01:32:23.925Z,15.04
2022-10-19T01:35:12.453Z,15.04
2022-10-19T01:37:48.684Z,15.07
2022-10-19T01:40:26.746Z,15.03
2022-10-19T01:43:18.103Z,15.05
2022-10-19T01:45:48.671Z,15.10
2022-10-19T01:48:22.886Z,15.07
2022-10-19T01:50:57.784Z,15.05
2022-10-19T01:53:26.417Z,15.03
2022-10-19T01:55:55.050Z,15.01
2022-10-19T01:58:27.949Z,15.01
2022-10-19T02:00:57.133Z,15.00
2022-10-19T02:03:25.767Z,15.00
2022-10-19T02:05:54.031Z,14.98
2022-10-19T02:08:27.526Z,14.88
2022-10-19T02:10:56.411Z,14.79
2022-10-19T02:13:24.584Z,14.78
2022-10-19T02:15:54.684Z,14.78
2022-10-19T02:18:28.419Z,14.80
2022-10-19T02:20:55.535Z,14.81
2022-10-19T02:23:25.765Z,14.81
2022-10-19T02:25:52.720Z,14.82
2022-10-19T02:28:19.811Z,14.84
2022-10-19T02:30:46.731Z,14.81
2022-10-19T02:33:13.479Z,14.78
2022-10-19T02:35:40.436Z,14.76
2022-10-19T02:38:10.699Z,14.78
2022-10-19T02:40:41.866Z,14.78
2022-10-19T02:43:13.890Z,14.74
2022-10-19T02:45:54.064Z,14.72
2022-10-19T02:48:24.806Z,14.72
2022-10-19T02:50:52.048Z,14.73
2022-10-19T02:53:18.751Z,14.75
2022-10-19T02:55:47.979Z,14.77
2022-10-19T02:58:14.437Z,14.81
2022-10-19T03:00:41.141Z,14.84
2022-10-19T03:03:07.631Z,14.87
2022-10-19T03:05:33.977Z,14.86
2022-10-19T03:08:00.358Z,14.88
2022-10-19T03:10:26.844Z,14.87
2022-10-19T03:12:53.224Z,14.86
2022-10-19T03:15:19.760Z,14.86
2022-10-19T03:17:46.134Z,14.88
2022-10-19T03:20:12.523Z,14.91
2022-10-19T03:22:38.857Z,14.92
2022-10-19T03:25:05.647Z,14.92
2022-10-19T03:27:32.458Z,14.91
2022-10-19T03:30:00.105Z,14.91
2022-10-19T03:32:26.709Z,14.91
2022-10-19T03:34:53.098Z,14.92
2022-10-19T03:37:19.496Z,14.94
2022-10-19T03:39:45.878Z,14.96
2022-10-19T03:42:12.224Z,14.97
2022-10-19T03:44:38.570Z,14.98
2022-10-19T03:47:04.906Z,15.01
2022-10-19T03:49:31.286Z,15.03
2022-10-19T03:51:57.599Z,15.03
2022-10-19T03:54:27.217Z,15.04
2022-10-19T03:56:53.932Z,15.05
2022-10-19T03:59:20.326Z,15.03
2022-10-19T04:01:46.732Z,15.01
2022-10-19T04:04:16.578Z,15.02
2022-10-19T04:06:45.036Z,15.00
2022-10-19T04:09:14.076Z,14.96
2022-10-19T04:11:41.301Z,14.90
2022-10-19T04:16:39.479Z,14.71
2022-10-19T04:19:05.893Z,14.66
2022-10-19T04:21:34.907Z,14.59
2022-10-19T04:24:08.051Z,14.56
2022-10-19T04:26:38.794Z,14.53
2022-10-19T04:29:05.553Z,14.48
2022-10-19T04:31:32.007Z,14.45
2022-10-19T04:33:58.362Z,14.43
2022-10-19T04:36:24.774Z,14.41
2022-10-19T04:38:51.469Z,14.40
2022-10-19T04:41:20.020Z,14.38
2022-10-19T04:43:47.765Z,14.36
2022-10-19T04:46:17.007Z,14.31
2022-10-19T04:48:46.131Z,14.28
2022-10-19T04:51:13.291Z,14.25
2022-10-19T04:53:41.107Z,14.24
2022-10-19T04:56:11.712Z,14.22
2022-10-19T04:58:38.194Z,14.16
2022-10-19T05:01:13.826Z,14.13
2022-10-19T05:03:40.465Z,14.11
2022-10-19T05:06:08.121Z,14.10
2022-10-19T05:08:35.036Z,14.10
2022-10-19T05:11:04.016Z,14.09
2022-10-19T05:13:32.757Z,14.06
2022-10-19T05:16:01.070Z,14.03
2022-10-19T05:18:27.894Z,14.04
2022-10-19T05:21:23.479Z,14.04
2022-10-19T05:23:54.536Z,14.06
2022-10-19T05:26:26.299Z,14.06
2022-10-19T05:28:57.910Z,14.08
2022-10-19T05:31:28.043Z,14.09
2022-10-19T05:33:58.432Z,14.15
2022-10-19T05:36:34.251Z,14.19
2022-10-19T05:39:04.395Z,14.20
2022-10-19T05:41:30.799Z,14.23
2022-10-19T05:43:59.510Z,14.24
2022-10-19T05:46:27.512Z,14.23
2022-10-19T05:48:56.123Z,14.23
2022-10-19T05:51:23.904Z,14.25
2022-10-19T05:53:50.761Z,14.28
2022-10-19T05:56:20.600Z,14.29
2022-10-19T05:58:47.990Z,14.31
2022-10-19T06:01:15.344Z,14.34
2022-10-19T06:03:41.862Z,14.35
2022-10-19T06:06:09.385Z,14.37
2022-10-19T06:08:36.686Z,14.39
2022-10-19T06:11:11.428Z,14.39
2022-10-19T06:13:39.121Z,14.39
2022-10-19T06:16:07.319Z,14.42
2022-10-19T06:18:33.812Z,14.44
2022-10-19T06:21:08.854Z,14.40
2022-10-19T06:23:35.783Z,14.42
2022-10-19T06:26:04.592Z,14.43
2022-10-19T06:28:31.249Z,14.44
2022-10-19T06:30:58.698Z,14.45
2022-10-19T06:33:26.743Z,14.43
2022-10-19T06:35:53.218Z,14.44
2022-10-19T06:38:19.647Z,14.46
2022-10-19T06:40:46.203Z,14.49
2022-10-19T06:43:12.574Z,14.52
2022-10-19T06:45:39.011Z,14.54
2022-10-19T06:48:07.661Z,14.59
2022-10-19T06:50:35.249Z,14.66
2022-10-19T06:53:01.638Z,14.72
2022-10-19T06:55:28.068Z,14.75
2022-10-19T06:57:54.455Z,14.73
2022-10-19T07:00:20.883Z,14.74
2022-10-19T07:02:47.244Z,14.77
2022-10-19T07:05:13.720Z,14.77
2022-10-19T07:07:40.133Z,14.75
2022-10-19T07:10:06.828Z,14.73
2022-10-19T07:12:33.328Z,14.71
2022-10-19T07:15:00.839Z,14.70
2022-10-19T07:17:27.205Z,14.68
2022-10-19T07:19:53.666Z,14.71
2022-10-19T07:22:25.660Z,14.72
2022-10-19T07:24:54.716Z,14.75
2022-10-19T07:27:21.163Z,14.82
2022-10-19T07:29:47.623Z,14.91
2022-10-19T07:32:13.997Z,15.00
2022-10-19T07:34:40.396Z,15.08
2022-10-19T07:37:06.844Z,15.09
2022-10-19T07:39:34.641Z,15.09
2022-10-19T07:42:01.032Z,15.09
2022-10-19T07:44:27.847Z,15.08
2022-10-19T07:46:54.254Z,15.11
2022-10-19T07:49:20.762Z,15.16
2022-10-19T07:51:47.229Z,15.23
2022-10-19T07:54:13.889Z,15.32
2022-10-19T07:56:40.439Z,15.38
2022-10-19T07:59:07.062Z,15.45
2022-10-19T08:01:38.193Z,15.43
2022-10-19T08:06:51.185Z,15.58
2022-10-19T08:09:40.141Z,15.64
2022-10-19T08:12:06.460Z,15.73
2022-10-19T08:14:32.975Z,15.75
2022-10-19T08:16:59.890Z,15.81
2022-10-19T08:19:26.265Z,15.90
2022-10-19T08:21:52.701Z,16.01
2022-10-19T08:24:20.373Z,16.05
2022-10-19T08:26:47.685Z,16.06
2022-10-19T08:29:18.312Z,16.04
2022-10-19T08:31:46.452Z,15.97
2022-10-19T08:34:13.859Z,15.95
2022-10-19T08:39:12.742Z,15.85
2022-10-19T08:44:41.355Z,15.85
2022-10-19T08:47:35.638Z,15.91
2022-10-19T08:50:03.697Z,15.97
2022-10-19T08:52:34.580Z,15.95
2022-10-19T08:55:13.083Z,15.86
2022-10-19T08:57:53.441Z,15.86
2022-10-19T09:00:34.089Z,15.97
2022-10-19T09:03:37.752Z,15.96
2022-10-19T09:06:37.105Z,15.89
2022-10-19T09:09:05.349Z,15.84
2022-10-19T09:11:38.380Z,15.84
2022-10-19T09:14:14.990Z,15.83
2022-10-19T09:16:42.579Z,15.85
2022-10-19T09:19:26.189Z,15.89
2022-10-19T09:22:04.330Z,15.97
2022-10-19T09:24:43.841Z,16.04
2022-10-19T09:27:22.398Z,16.12
2022-10-19T09:29:57.884Z,16.20
2022-10-19T09:32:30.890Z,16.20
2022-10-19T09:35:02.353Z,16.27
2022-10-19T09:40:01.760Z,16.40
2022-10-19T09:42:33.297Z,16.44
2022-10-19T09:45:14.026Z,16.48
2022-10-19T09:47:45.829Z,16.44
2022-10-19T09:50:26.651Z,16.38
2022-10-19T09:52:56.235Z,16.32
2022-10-19T09:55:34.057Z,16.28
2022-10-19T09:58:03.922Z,16.25
2022-10-19T10:00:42.780Z,16.25
2022-10-19T10:03:22.362Z,16.24
2022-10-19T10:05:49.565Z,16.24
2022-10-19T10:08:22.512Z,16.31
2022-10-19T10:11:11.218Z,16.38
2022-10-19T10:13:41.589Z,16.44
2022-10-19T10:16:11.363Z,16.49
2022-10-19T10:18:50.451Z,16.52
2022-10-19T10:21:32.435Z,16.62
2022-10-19T10:24:20.474Z,16.70
2022-10-19T10:26:49.626Z,16.77
2022-10-19T10:29:22.217Z,16.78
2022-10-19T10:32:12.239Z,16.74
2022-10-19T10:35:01.325Z,16.73
2022-10-19T10:37:47.671Z,16.75
2022-10-19T10:40:27.933Z,16.72
2022-10-19T10:42:57.683Z,16.71
2022-10-19T10:45:29.120Z,16.72
2022-10-19T10:47:56.877Z,16.75
2022-10-19T10:50:31.259Z,16.86
2022-10-19T10:53:34.601Z,17.09
2022-10-19T10:56:01.590Z,17.27
2022-10-19T10:58:31.727Z,17.43
2022-10-19T11:01:06.678Z,17.58
2022-10-19T11:03:37.778Z,17.75
2022-10-19T11:06:04.314Z,17.88
2022-10-19T11:08:49.245Z,17.86
2022-10-19T11:11:28.344Z,17.87
2022-10-19T11:14:08.247Z,17.92
2022-10-19T11:16:39.841Z,17.87
2022-10-19T11:19:11.701Z,17.90
2022-10-19T11:21:44.225Z,17.99
2022-10-19T11:24:15.613Z,18.01
2022-10-19T11:27:17.600Z,18.08
2022-10-19T11:30:10.660Z,18.25
2022-10-19T11:33:05.857Z,18.59
2022-10-19T11:35:36.112Z,18.86
2022-10-19T11:38:29.557Z,18.91
2022-10-19T11:41:21.712Z,18.67
2022-10-19T11:44:14.449Z,18.65
2022-10-19T11:47:17.824Z,19.06
2022-10-19T11:49:59.280Z,19.60
2022-10-19T11:52:51.568Z,20.12
2022-10-19T11:55:37.886Z,20.09
2022-10-19T11:58:32.377Z,20.36
2022-10-19T12:01:39.297Z,20.55
2022-10-19T12:04:11.614Z,20.58
2022-10-19T12:06:55.056Z,20.15
2022-10-19T12:09:56.739Z,20.29
2022-10-19T12:12:43.409Z,20.26
2022-10-19T12:15:21.419Z,20.26
2022-10-19T12:17:51.600Z,19.89
2022-10-19T12:20:25.851Z,19.51
2022-10-19T12:22:52.643Z,19.33
2022-10-19T12:25:19.986Z,19.25
2022-10-19T12:27:49.058Z,19.10
2022-10-19T12:30:19.740Z,19.49
2022-10-19T12:33:23.158Z,19.91
2022-10-19T12:36:01.595Z,20.15
2022-10-19T12:38:50.821Z,20.06
2022-10-19T12:41:18.732Z,20.26
2022-10-19T12:44:02.657Z,20.41
2022-10-19T12:46:48.354Z,20.54
2022-10-19T12:49:28.007Z,20.65
2022-10-19T12:51:56.192Z,20.68
2022-10-19T12:54:25.738Z,20.71
2022-10-19T12:56:54.586Z,20.77
2022-10-19T12:59:44.807Z,21.00
2022-10-19T13:02:29.265Z,21.02
2022-10-19T13:04:55.825Z,21.16
2022-10-19T13:07:26.509Z,21.36
2022-10-19T13:10:18.805Z,21.30
2022-10-19T13:12:47.291Z,21.17
2022-10-19T13:15:40.069Z,21.12
2022-10-19T13:18:34.098Z,20.77
2022-10-19T13:21:02.540Z,20.59
2022-10-19T13:23:30.046Z,20.61
2022-10-19T13:26:32.835Z,20.45
2022-10-19T13:28:59.493Z,20.31
2022-10-19T13:31:32.936Z,20.34
2022-10-19T13:33:59.461Z,20.42
2022-10-19T13:36:26.664Z,20.65
2022-10-19T13:38:59.048Z,20.48
2022-10-19T13:41:46.843Z,20.22
2022-10-19T13:44:13.868Z,20.02
2022-10-19T13:46:58.535Z,19.88
2022-10-19T13:49:46.974Z,19.79
2022-10-19T13:52:48.758Z,19.59
2022-10-19T13:55:21.101Z,19.52
2022-10-19T13:58:13.813Z,19.44
2022-10-19T14:01:01.980Z,19.31
2022-10-19T14:03:43.619Z,19.20
2022-10-19T14:06:24.716Z,19.23
2022-10-19T14:09:12.262Z,19.28
2022-10-19T14:11:42.184Z,19.34
2022-10-19T14:14:11.625Z,19.37
2022-10-19T14:16:57.100Z,19.38
2022-10-19T14:19:47.975Z,19.36
2022-10-19T14:22:23.551Z,19.35
2022-10-19T14:24:50.088Z,19.29
2022-10-19T14:27:24.785Z,19.25
2022-10-19T14:29:53.372Z,19.19
2022-10-19T14:32:29.500Z,19.10
2022-10-19T14:37:36.806Z,18.91
2022-10-19T14:40:26.608Z,18.81
2022-10-19T14:42:56.708Z,18.70
2022-10-19T14:45:26.564Z,18.69
2022-10-19T14:47:57.718Z,18.66
2022-10-19T14:51:05.815Z,18.62
2022-10-19T14:53:34.957Z,18.56
2022-10-19T14:56:15.494Z,18.58
2022-10-19T14:58:49.046Z,18.59
2022-10-19T15:01:18.477Z,18.63
2022-10-19T15:03:46.187Z,18.64
2022-10-19T15:06:25.562Z,18.65
2022-10-19T15:08:55.476Z,18.65
2022-10-19T15:11:29.774Z,18.62
2022-10-19T15:14:21.967Z,18.62
2022-10-19T15:16:56.736Z,18.62
2022-10-19T15:19:30.189Z,18.57
2022-10-19T15:22:09.215Z,18.49
2022-10-19T15:24:38.101Z,18.40
2022-10-19T15:27:29.967Z,18.29
2022-10-19T15:29:59.335Z,18.25
2022-10-19T15:32:31.871Z,18.22
2022-10-19T15:34:58.933Z,18.20
2022-10-19T15:39:56.758Z,18.12
2022-10-19T15:42:30.833Z,18.07
2022-10-19T15:44:57.237Z,17.95
2022-10-19T15:47:34.002Z,17.86
2022-10-19T15:50:30.603Z,17.77
2022-10-19T15:53:03.469Z,17.67
2022-10-19T15:58:25.653Z,17.53
2022-10-19T16:01:29.152Z,17.48
2022-10-19T16:04:04.028Z,17.46
2022-10-19T16:06:50.882Z,17.44
2022-10-19T16:09:32.799Z,17.42
2022-10-19T16:12:27.345Z,17.39
2022-10-19T16:15:26.261Z,17.39
2022-10-19T16:18:04.269Z,17.36
2022-10-19T16:20:38.565Z,17.34
2022-10-19T16:23:07.114Z,17.31
2022-10-19T16:28:37.129Z,17.26
2022-10-19T16:33:56.355Z,17.15
2022-10-19T16:36:22.860Z,17.13
2022-10-19T16:38:49.260Z,17.11
2022-10-19T16:41:16.678Z,17.06
2022-10-19T16:43:43.421Z,16.99
2022-10-19T16:46:11.323Z,16.95
2022-10-19T16:48:38.224Z,16.88
2022-10-19T16:51:07.690Z,16.80
2022-10-19T16:53:35.030Z,16.74
2022-10-19T16:56:06.674Z,16.70
2022-10-19T16:58:33.142Z,16.62
2022-10-19T17:01:02.457Z,16.56
2022-10-19T17:03:28.880Z,16.50
2022-10-19T17:05:55.352Z,16.49
2022-10-19T17:08:23.927Z,16.45
2022-10-19T17:10:57.171Z,16.41
2022-10-19T17:13:23.726Z,16.39
2022-10-19T17:15:50.077Z,16.36
2022-10-19T17:18:16.472Z,16.31
2022-10-19T17:20:42.866Z,16.27
2022-10-19T17:23:09.485Z,16.24
2022-10-19T17:25:36.670Z,16.21
2022-10-19T17:28:03.098Z,16.14
2022-10-19T17:30:29.451Z,16.12
2022-10-19T17:32:55.825Z,16.07
2022-10-19T17:35:22.599Z,16.04
2022-10-19T17:37:48.992Z,16.00
2022-10-19T17:40:15.472Z,15.93
2022-10-19T17:42:41.875Z,15.85
2022-10-19T17:45:08.726Z,15.81
2022-10-19T17:47:35.285Z,15.76
2022-10-19T17:50:01.932Z,15.70
2022-10-19T17:52:28.337Z,15.66
2022-10-19T17:55:13.390Z,15.65
2022-10-19T17:57:40.116Z,15.62
2022-10-19T18:00:07.354Z,15.60
2022-10-19T18:02:35.407Z,15.58
2022-10-19T18:05:02.521Z,15.49
2022-10-19T18:07:33.969Z,15.47
2022-10-19T18:10:03.733Z,15.45
2022-10-19T18:12:30.280Z,15.39
2022-10-19T18:14:58.276Z,15.37
2022-10-19T18:22:27.275Z,15.21
2022-10-19T18:24:53.708Z,15.24
2022-10-19T18:27:20.165Z,15.27
2022-10-19T18:29:46.597Z,15.30
2022-10-19T18:32:13.023Z,15.31
2022-10-19T18:34:39.399Z,15.30
2022-10-19T18:37:07.134Z,15.28
2022-10-19T18:39:33.500Z,15.24
2022-10-19T18:42:00.017Z,15.21
2022-10-19T18:44:29.482Z,15.20
2022-10-19T18:46:57.959Z,15.17
2022-10-19T18:49:27.437Z,15.14
2022-10-19T18:51:55.702Z,15.12
2022-10-19T18:54:24.269Z,15.10
2022-10-19T18:56:50.690Z,15.04
2022-10-19T18:59:17.494Z,15.04
2022-10-19T19:01:44.009Z,15.02
2022-10-19T19:04:10.736Z,15.02
2022-10-19T19:06:38.287Z,14.99
2022-10-19T19:09:08.522Z,14.94
2022-10-19T19:11:38.183Z,14.92
2022-10-19T19:14:08.206Z,14.90
2022-10-19T19:16:37.117Z,14.90
2022-10-19T19:19:04.881Z,14.89
2022-10-19T19:21:32.157Z,14.87
2022-10-19T19:24:01.857Z,14.85
2022-10-19T19:26:31.365Z,14.77
2022-10-19T19:28:57.953Z,14.71
2022-10-19T19:31:25.658Z,14.64
2022-10-19T19:33:52.120Z,14.62
2022-10-19T19:36:19.135Z,14.58
2022-10-19T19:38:46.178Z,14.58
2022-10-19T19:41:14.699Z,14.58
2022-10-19T19:43:41.450Z,14.59
2022-10-19T19:46:12.864Z,14.61
2022-10-19T19:48:40.885Z,14.64
2022-10-19T19:51:19.007Z,14.63
2022-10-19T19:53:46.588Z,14.65
2022-10-19T19:56:14.212Z,14.64
2022-10-19T19:58:41.494Z,14.58
2022-10-19T20:01:20.372Z,14.54
2022-10-19T20:03:47.757Z,14.47
2022-10-19T20:06:17.885Z,14.42
2022-10-19T20:08:46.934Z,14.37
2022-10-19T20:11:16.050Z,14.35
2022-10-19T20:13:45.001Z,14.31
2022-10-19T20:16:25.117Z,14.30
2022-10-19T20:19:07.133Z,14.27
2022-10-19T20:21:33.689Z,14.21
2022-10-19T20:24:00.816Z,14.17
2022-10-19T20:26:28.096Z,14.13
2022-10-19T20:28:55.098Z,14.10
2022-10-19T20:31:22.198Z,14.10
2022-10-19T20:33:49.251Z,14.08
2022-10-19T20:36:18.627Z,14.08
2022-10-19T20:38:50.626Z,14.05
2022-10-19T20:41:18.572Z,14.01
2022-10-19T20:43:45.374Z,14.00
2022-10-19T20:46:17.785Z,13.98
2022-10-19T20:48:45.570Z,13.96
2022-10-19T20:51:14.104Z,13.93
2022-10-19T20:53:41.535Z,13.90
2022-10-19T20:56:10.101Z,13.87
2022-10-19T20:58:40.157Z,13.82
2022-10-19T21:01:14.297Z,13.81
2022-10-19T21:03:53.139Z,13.78
2022-10-19T21:06:21.259Z,13.79
2022-10-19T21:08:48.125Z,13.77
2022-10-19T21:11:19.745Z,13.78
2022-10-19T21:13:47.405Z,13.76
2022-10-19T21:16:16.350Z,13.77
2022-10-19T21:18:44.243Z,13.77
2022-10-19T21:21:22.702Z,13.73
2022-10-19T21:23:53.807Z,13.66
2022-10-19T21:26:20.699Z,13.65
2022-10-19T21:28:48.647Z,13.65
2022-10-19T21:31:16.613Z,13.65
2022-10-19T21:33:43.937Z,13.63
2022-10-19T21:36:11.617Z,13.60
2022-10-19T21:38:38.400Z,13.54
2022-10-19T21:41:20.967Z,13.55
2022-10-19T21:43:50.533Z,13.54
2022-10-19T21:46:19.224Z,13.52
2022-10-19T21:48:45.692Z,13.53
2022-10-19T21:51:14.774Z,13.49
2022-10-19T21:53:41.125Z,13.47
2022-10-19T21:56:07.451Z,13.43
2022-10-19T21:58:33.846Z,13.41
2022-10-19T22:01:07.800Z,13.40
2022-10-19T22:03:34.664Z,13.38
2022-10-19T22:06:01.045Z,13.38
2022-10-19T22:08:27.504Z,13.37
2022-10-19T22:11:04.891Z,13.35
2022-10-19T22:13:31.285Z,13.33
2022-10-19T22:16:03.190Z,13.32
2022-10-19T22:18:29.619Z,13.30
2022-10-19T22:20:56.031Z,13.28
2022-10-19T22:23:24.325Z,13.29
2022-10-19T22:25:50.693Z,13.26
2022-10-19T22:28:17.228Z,13.22
2022-10-19T22:30:45.054Z,13.16
2022-10-19T22:33:11.410Z,13.18
2022-10-19T22:35:37.798Z,13.14
2022-10-19T22:38:04.127Z,13.11
2022-10-19T22:40:30.471Z,13.10
2022-10-19T22:42:56.828Z,13.11
2022-10-19T22:45:23.499Z,13.13
2022-10-19T22:47:50.078Z,13.11
2022-10-19T22:50:19.357Z,13.11
2022-10-19T22:52:45.796Z,13.11
2022-10-19T22:55:12.299Z,13.12
2022-10-19T22:57:38.867Z,13.09
2022-10-19T23:00:05.780Z,13.08
2022-10-19T23:02:32.382Z,13.03
2022-10-19T23:04:59.280Z,13.02
2022-10-19T23:07:25.714Z,13.00
2022-10-19T23:09:55.674Z,12.96
2022-10-19T23:12:22.259Z,12.91
2022-10-19T23:14:48.733Z,12.86
2022-10-19T23:17:15.344Z,12.80
2022-10-19T23:19:41.881Z,12.76
2022-10-19T23:22:08.267Z,12.73
2022-10-19T23:24:34.623Z,12.70
2022-10-19T23:27:01.016Z,12.71
2022-10-19T23:29:27.443Z,12.66
2022-10-19T23:31:53.840Z,12.65
2022-10-19T23:34:20.159Z,12.62
2022-10-19T23:36:47.763Z,12.62
2022-10-19T23:39:14.427Z,12.62
2022-10-19T23:41:40.827Z,12.62
2022-10-19T23:44:09.340Z,12.60
2022-10-19T23:46:35.843Z,12.57
2022-10-19T23:49:02.231Z,12.56
2022-10-19T23:51:28.600Z,12.54
2022-10-19T23:53:55.125Z,12.52
2022-10-19T23:56:24.913Z,12.49
2022-10-19T23:58:52.447Z,12.49
